Time;durP1;ratioP1;P1;durP2;ratioP2;P2;SDS_P1;SDS_P2;PMS_P1;PMS_P2;Temp;Humidity;BMP_temperature;BMP_pressure;BME280_temperature;BME280_humidity;BME280_pressure;Samples;Min_cycle;Max_cycle;Signal;HPM_P1;HPM_P2
2022/01/27 00:07:33;;;;;;;0.20;0.10;;;;;;;3.01;100.00;101660.41;5021732;28;20530;-55
2022/01/27 00:10:15;;;;;;;0.20;0.10;;;;;;;3.00;100.00;101663.88;5025826;28;20467;-55
2022/01/27 00:12:42;;;;;;;0.20;0.10;;;;;;;3.15;100.00;101668.59;5025769;28;20513;-56
2022/01/27 00:15:12;;;;;;;0.20;0.10;;;;;;;2.91;100.00;101661.94;5019805;28;20542;-55
2022/01/27 00:17:45;;;;;;;0.20;0.10;;;;;;;3.04;100.00;101664.88;5031258;28;20471;-55
2022/01/27 00:20:14;;;;;;;0.20;0.10;;;;;;;3.18;100.00;101663.47;5021127;28;20444;-55
2022/01/27 00:22:42;;;;;;;0.60;0.60;;;;;;;3.23;100.00;101667.94;5018972;28;20456;-56
2022/01/27 00:25:10;;;;;;;0.20;0.10;;;;;;;2.94;100.00;101666.38;5023120;28;20449;-55
2022/01/27 00:27:36;;;;;;;0.20;0.10;;;;;;;2.86;100.00;101660.91;5029353;28;20507;-55
2022/01/27 00:30:05;;;;;;;0.20;0.10;;;;;;;2.85;100.00;101667.03;5026240;28;20448;-56
2022/01/27 00:32:33;;;;;;;0.20;0.10;;;;;;;2.80;100.00;101665.13;5022713;28;20447;-55
2022/01/27 00:34:59;;;;;;;0.20;0.10;;;;;;;2.86;100.00;101663.53;5025721;28;21000;-57
2022/01/27 00:37:27;;;;;;;0.20;0.10;;;;;;;2.99;100.00;101656.84;5029411;28;20480;-55
2022/01/27 00:39:54;;;;;;;0.20;0.10;;;;;;;2.83;100.00;101665.22;5026898;28;20475;-55
2022/01/27 00:42:22;;;;;;;0.60;0.60;;;;;;;2.79;100.00;101652.88;5022826;28;20880;-55
2022/01/27 00:44:49;;;;;;;0.20;0.10;;;;;;;2.87;100.00;101657.44;5018133;28;20498;-55
2022/01/27 00:47:16;;;;;;;0.20;0.10;;;;;;;2.75;100.00;101659.78;5035592;28;20479;-55
2022/01/27 00:49:43;;;;;;;0.20;0.10;;;;;;;2.92;100.00;101645.31;5024832;28;20499;-55
2022/01/27 00:52:15;;;;;;;0.20;0.10;;;;;;;3.01;100.00;101649.00;5027719;28;20506;-55
2022/01/27 00:54:43;;;;;;;0.97;0.97;;;;;;;2.88;100.00;101647.84;5023810;28;20547;-55
2022/01/27 00:57:24;;;;;;;0.20;0.10;;;;;;;3.16;100.00;101642.41;5029088;28;20523;-55
2022/01/27 00:59:56;;;;;;;0.20;0.10;;;;;;;3.00;100.00;101639.34;5029169;28;20542;-55
2022/01/27 01:02:37;;;;;;;1.30;1.30;;;;;;;2.85;100.00;101642.50;5024314;28;20482;-56
2022/01/27 01:05:27;;;;;;;0.40;0.40;;;;;;;2.88;100.00;101637.34;5022277;28;20440;-55
2022/01/27 01:07:56;;;;;;;0.30;0.20;;;;;;;3.18;100.00;101630.19;5022380;28;20468;-55
2022/01/27 01:16:05;;;;;;;0.30;0.20;;;;;;;3.01;100.00;101625.38;4975081;28;20975;-55
2022/01/27 01:32:18;;;;;;;0.20;0.20;;;;;;;2.92;100.00;101632.19;5004278;28;20530;-55
2022/01/27 01:34:47;;;;;;;0.20;0.10;;;;;;;3.01;100.00;101626.25;5027474;28;20516;-55
2022/01/27 01:37:18;;;;;;;0.20;0.10;;;;;;;3.16;100.00;101631.91;5027663;28;20519;-55
2022/01/27 01:39:44;;;;;;;0.20;0.10;;;;;;;3.02;100.00;101637.69;5023583;28;20451;-55
2022/01/27 01:42:12;;;;;;;0.20;0.10;;;;;;;2.75;100.00;101651.91;5021299;28;20523;-55
2022/01/27 01:44:39;;;;;;;0.20;0.10;;;;;;;2.96;100.00;101639.28;5025101;28;20447;-55
2022/01/27 01:47:07;;;;;;;0.20;0.10;;;;;;;3.02;100.00;101641.19;5031331;28;20559;-55
2022/01/27 01:49:34;;;;;;;0.20;0.10;;;;;;;3.01;100.00;101639.38;5024580;28;20916;-55
2022/01/27 01:52:07;;;;;;;0.20;0.10;;;;;;;2.97;100.00;101648.94;5025767;28;20547;-55
2022/01/27 01:54:34;;;;;;;0.20;0.10;;;;;;;2.89;100.00;101644.38;5023114;28;20939;-55
2022/01/27 01:57:01;;;;;;;32.47;2.20;;;;;;;3.06;100.00;101642.16;5027677;28;20475;-55
2022/01/27 01:59:27;;;;;;;0.20;0.10;;;;;;;2.86;100.00;101632.03;5026382;28;20878;-55
2022/01/27 02:01:54;;;;;;;0.20;0.10;;;;;;;3.19;100.00;101628.44;5015973;28;20457;-55
2022/01/27 02:04:21;;;;;;;1.70;0.67;;;;;;;2.93;100.00;101627.84;5026507;28;20895;-55
2022/01/27 02:06:53;;;;;;;0.20;0.10;;;;;;;2.97;100.00;101621.78;5020770;28;20467;-55
2022/01/27 02:09:47;;;;;;;0.20;0.10;;;;;;;2.99;100.00;101620.09;5021693;28;20444;-55
2022/01/27 02:18:00;;;;;;;1.30;1.30;;;;;;;3.11;100.00;101604.63;4970060;28;20831;-55
2022/01/27 02:20:28;;;;;;;0.20;0.10;;;;;;;2.94;100.00;101603.34;5012103;28;20453;-55
2022/01/27 02:22:55;;;;;;;0.20;0.10;;;;;;;2.81;100.00;101601.28;5027586;28;20551;-55
2022/01/27 02:25:22;;;;;;;0.30;0.30;;;;;;;3.03;100.00;101594.81;5025273;28;20483;-55
2022/01/27 02:27:54;;;;;;;0.20;0.10;;;;;;;2.90;100.00;101596.25;5020587;28;20510;-55
2022/01/27 02:30:22;;;;;;;0.20;0.10;;;;;;;2.70;100.00;101587.88;5022030;28;20877;-55
2022/01/27 02:32:52;;;;;;;0.20;0.10;;;;;;;2.63;100.00;101583.34;5027522;28;20493;-55
2022/01/27 02:35:24;;;;;;;0.20;0.10;;;;;;;2.72;100.00;101578.31;5026959;28;20911;-55
2022/01/27 02:37:52;;;;;;;0.20;0.10;;;;;;;2.91;100.00;101585.78;5026957;28;20481;-55
2022/01/27 02:40:39;;;;;;;0.20;0.10;;;;;;;2.73;100.00;101571.31;5027215;28;20502;-55
2022/01/27 02:43:06;;;;;;;0.20;0.10;;;;;;;2.90;100.00;101572.63;5024113;28;20978;-55
2022/01/27 02:45:44;;;;;;;0.20;0.10;;;;;;;2.84;100.00;101564.59;5020039;28;20825;-56
2022/01/27 02:48:12;;;;;;;0.20;0.10;;;;;;;2.77;100.00;101570.56;5032852;28;20953;-55
2022/01/27 02:50:38;;;;;;;0.30;0.30;;;;;;;2.89;100.00;101563.88;5020025;28;20479;-55
2022/01/27 02:53:09;;;;;;;0.20;0.10;;;;;;;3.09;100.00;101560.78;5027525;28;20486;-55
2022/01/27 02:55:36;;;;;;;0.20;0.10;;;;;;;2.95;100.00;101550.84;5019952;28;20496;-55
2022/01/27 02:58:04;;;;;;;0.20;0.10;;;;;;;2.73;100.00;101555.56;5020869;28;20559;-55
2022/01/27 03:00:32;;;;;;;0.20;0.10;;;;;;;2.87;100.00;101552.41;5026961;28;20444;-55
2022/01/27 03:02:59;;;;;;;0.20;0.10;;;;;;;2.73;100.00;101556.44;5026577;28;20447;-57
2022/01/27 03:05:26;;;;;;;0.20;0.10;;;;;;;2.73;100.00;101559.06;5007227;28;20456;-55
2022/01/27 03:07:53;;;;;;;0.20;0.10;;;;;;;2.94;100.00;101556.97;5019650;28;21035;-56
2022/01/27 03:10:29;;;;;;;0.30;0.20;;;;;;;2.92;100.00;101550.78;5025554;28;20448;-55
2022/01/27 03:12:59;;;;;;;0.20;0.10;;;;;;;2.84;100.00;101546.22;5026492;28;20452;-55
2022/01/27 03:15:27;;;;;;;0.20;0.10;;;;;;;2.79;100.00;101542.59;5022521;28;20542;-55
2022/01/27 03:17:54;;;;;;;0.20;0.10;;;;;;;2.75;100.00;101544.28;5029691;28;20473;-55
2022/01/27 03:20:23;;;;;;;0.20;0.10;;;;;;;2.65;100.00;101537.03;5023087;28;20447;-55
2022/01/27 03:22:50;;;;;;;0.20;0.10;;;;;;;2.63;100.00;101538.72;5019795;28;20475;-55
2022/01/27 03:25:16;;;;;;;1.60;1.50;;;;;;;2.57;100.00;101535.94;5022778;28;20547;-55
2022/01/27 03:27:47;;;;;;;0.20;0.10;;;;;;;2.69;100.00;101533.63;5026297;28;20506;-55
2022/01/27 03:30:16;;;;;;;0.20;0.10;;;;;;;2.61;100.00;101527.31;5023750;28;20490;-55
2022/01/27 03:32:43;;;;;;;0.20;0.10;;;;;;;2.68;100.00;101522.22;5019408;28;20570;-55
2022/01/27 03:35:10;;;;;;;0.20;0.10;;;;;;;2.75;100.00;101522.38;5021107;28;20575;-55
2022/01/27 03:37:36;;;;;;;0.20;0.10;;;;;;;2.59;100.00;101524.63;5025898;28;20906;-56
2022/01/27 03:40:05;;;;;;;0.20;0.10;;;;;;;2.65;100.00;101519.53;5024757;28;20486;-55
2022/01/27 03:42:32;;;;;;;0.20;0.10;;;;;;;2.65;100.00;101523.91;5019300;28;21011;-56
2022/01/27 03:44:59;;;;;;;0.20;0.20;;;;;;;2.79;100.00;101524.22;5020237;28;20499;-55
2022/01/27 03:47:25;;;;;;;0.20;0.10;;;;;;;2.75;100.00;101530.25;5031576;28;20538;-55
2022/01/27 03:49:52;;;;;;;0.20;0.10;;;;;;;2.72;100.00;101532.78;5020110;28;20448;-55
2022/01/27 03:52:19;;;;;;;0.20;0.10;;;;;;;2.84;100.00;101531.34;5026069;28;20463;-55
2022/01/27 03:54:45;;;;;;;0.20;0.10;;;;;;;2.87;100.00;101543.66;5002147;28;20535;-55
2022/01/27 03:57:12;;;;;;;0.20;0.10;;;;;;;2.93;100.00;101539.44;5025399;28;20564;-55
2022/01/27 03:59:38;;;;;;;0.30;0.30;;;;;;;2.89;100.00;101534.97;5025340;28;21003;-55
2022/01/27 04:02:05;;;;;;;0.27;0.23;;;;;;;2.77;100.00;101528.56;5008488;28;20494;-55
2022/01/27 04:04:32;;;;;;;0.20;0.10;;;;;;;2.73;100.00;101511.81;5025689;28;21254;-55
2022/01/27 04:06:59;;;;;;;0.20;0.10;;;;;;;2.72;100.00;101517.03;5019517;28;20526;-55
2022/01/27 04:09:28;;;;;;;0.20;0.10;;;;;;;2.60;100.00;101526.44;5019069;28;20882;-55
2022/01/27 04:11:55;;;;;;;0.20;0.20;;;;;;;2.64;100.00;101509.91;5024564;28;20456;-55
2022/01/27 04:14:21;;;;;;;0.20;0.10;;;;;;;2.81;100.00;101512.00;5025521;28;20501;-55
2022/01/27 04:16:48;;;;;;;0.20;0.10;;;;;;;2.89;100.00;101520.97;5024326;28;20527;-55
2022/01/27 04:19:15;;;;;;;0.20;0.10;;;;;;;3.00;100.00;101523.81;5018851;28;20957;-56
2022/01/27 04:21:41;;;;;;;0.20;0.10;;;;;;;3.16;100.00;101518.06;5024031;28;20891;-56
2022/01/27 04:24:10;;;;;;;0.20;0.10;;;;;;;2.92;100.00;101524.53;5025763;28;20890;-55
2022/01/27 04:26:43;;;;;;;0.20;0.10;;;;;;;3.20;100.00;101526.03;5020519;28;20525;-55
2022/01/27 04:29:10;;;;;;;0.20;0.10;;;;;;;2.98;99.92;101540.41;5029839;28;20467;-55
2022/01/27 04:31:40;;;;;;;0.20;0.10;;;;;;;2.89;100.00;101539.34;5021463;28;20893;-55
2022/01/27 04:34:06;;;;;;;0.20;0.10;;;;;;;2.91;100.00;101532.38;5018880;28;20459;-56
2022/01/27 04:36:35;;;;;;;0.20;0.20;;;;;;;3.03;100.00;101535.28;5005179;28;20591;-55
2022/01/27 04:44:29;;;;;;;0.20;0.10;;;;;;;3.18;99.84;101534.72;5018634;28;20447;-53
2022/01/27 04:47:05;;;;;;;0.20;0.10;;;;;;;3.09;100.00;101524.00;5029574;28;20498;-52
2022/01/27 04:49:33;;;;;;;0.20;0.10;;;;;;;3.09;100.00;101517.03;5022077;28;20475;-53
2022/01/27 04:52:00;;;;;;;0.20;0.10;;;;;;;3.07;100.00;101507.34;5023164;28;20483;-53
2022/01/27 04:54:37;;;;;;;0.20;0.10;;;;;;;2.95;100.00;101508.84;5021603;28;20548;-52
2022/01/27 04:57:05;;;;;;;0.20;0.10;;;;;;;2.95;100.00;101500.06;5025066;28;20572;-53
2022/01/27 04:59:37;;;;;;;0.20;0.10;;;;;;;3.20;100.00;101501.50;5024038;28;20480;-53
2022/01/27 05:02:10;;;;;;;0.20;0.10;;;;;;;3.37;99.89;101507.09;5018245;28;20866;-53
2022/01/27 05:04:42;;;;;;;0.30;0.20;;;;;;;3.27;100.00;101511.25;5018293;28;20495;-53
2022/01/27 05:07:09;;;;;;;0.20;0.10;;;;;;;3.36;99.30;101500.06;5023679;28;20507;-53
2022/01/27 05:09:37;;;;;;;0.20;0.10;;;;;;;3.23;99.91;101497.19;5024968;28;20447;-53
2022/01/27 05:12:14;;;;;;;0.20;0.10;;;;;;;3.42;99.13;101506.31;5022274;28;20513;-53
2022/01/27 05:14:40;;;;;;;0.20;0.10;;;;;;;3.20;100.00;101505.00;5018547;28;20482;-52
2022/01/27 05:17:07;;;;;;;0.20;0.10;;;;;;;3.08;100.00;101507.38;5029679;28;20594;-52
2022/01/27 05:19:33;;;;;;;0.20;0.10;;;;;;;3.11;100.00;101509.16;5022029;28;20463;-53
2022/01/27 05:22:00;;;;;;;0.20;0.10;;;;;;;3.13;100.00;101516.22;5025159;28;20510;-52
2022/01/27 05:24:27;;;;;;;0.20;0.10;;;;;;;2.87;100.00;101514.75;5028211;28;20942;-52
2022/01/27 05:26:53;;;;;;;0.20;0.10;;;;;;;3.05;100.00;101524.81;5026083;28;20570;-53
2022/01/27 05:29:20;;;;;;;0.20;0.10;;;;;;;2.91;100.00;101528.00;5021468;28;20487;-55
2022/01/27 05:31:46;;;;;;;0.20;0.10;;;;;;;2.87;100.00;101526.16;5013693;28;20507;-55
2022/01/27 05:34:13;;;;;;;0.20;0.10;;;;;;;2.84;100.00;101525.19;5016732;28;20448;-55
2022/01/27 05:36:40;;;;;;;0.20;0.10;;;;;;;2.94;100.00;101514.94;5024054;28;20985;-55
2022/01/27 05:39:06;;;;;;;0.20;0.10;;;;;;;2.96;100.00;101509.72;5010728;28;20494;-55
2022/01/27 05:41:33;;;;;;;0.20;0.10;;;;;;;3.19;100.00;101497.09;5025710;28;20454;-55
2022/01/27 05:44:00;;;;;;;0.20;0.10;;;;;;;2.98;100.00;101501.03;5021347;28;20444;-56
2022/01/27 05:46:26;;;;;;;0.20;0.10;;;;;;;2.97;100.00;101506.25;5034828;28;20468;-55
2022/01/27 05:48:53;;;;;;;0.33;0.30;;;;;;;3.15;100.00;101498.78;5030159;28;20821;-55
2022/01/27 05:51:20;;;;;;;0.20;0.20;;;;;;;3.20;100.00;101494.50;5022631;28;20499;-55
2022/01/27 05:53:47;;;;;;;0.20;0.10;;;;;;;3.11;100.00;101491.66;5027783;28;20475;-55
2022/01/27 05:56:14;;;;;;;0.20;0.10;;;;;;;3.08;100.00;101483.72;5026390;28;21090;-55
2022/01/27 05:58:41;;;;;;;0.20;0.10;;;;;;;3.14;100.00;101485.59;5021043;28;20547;-55
2022/01/27 06:01:08;;;;;;;0.53;0.53;;;;;;;2.98;100.00;101492.25;5004946;28;20507;-55
2022/01/27 06:03:34;;;;;;;0.20;0.10;;;;;;;3.00;100.00;101479.16;5027780;28;20539;-55
2022/01/27 06:06:02;;;;;;;0.20;0.10;;;;;;;3.07;100.00;101470.56;5027254;28;20498;-55
2022/01/27 06:08:29;;;;;;;0.20;0.10;;;;;;;3.14;100.00;101477.69;5028061;28;20480;-55
2022/01/27 06:10:57;;;;;;;0.20;0.10;;;;;;;3.20;100.00;101478.72;5027256;28;20471;-56
2022/01/27 06:13:24;;;;;;;0.20;0.10;;;;;;;3.38;100.00;101478.22;5007920;28;20456;-56
2022/01/27 06:15:51;;;;;;;0.20;0.10;;;;;;;3.43;100.00;101479.22;5025003;28;20490;-56
2022/01/27 06:18:18;;;;;;;0.20;0.10;;;;;;;3.18;100.00;101480.44;5008029;28;20487;-55
2022/01/27 06:20:46;;;;;;;0.20;0.10;;;;;;;3.29;100.00;101480.69;5003253;28;20480;-55
2022/01/27 06:23:14;;;;;;;0.30;0.20;;;;;;;3.30;100.00;101485.06;5025471;28;20452;-55
2022/01/27 06:25:42;;;;;;;0.20;0.10;;;;;;;3.14;100.00;101482.97;5027330;28;20963;-55
2022/01/27 06:28:08;;;;;;;0.20;0.10;;;;;;;3.13;100.00;101484.69;5022393;28;20602;-57
2022/01/27 06:30:35;;;;;;;0.20;0.10;;;;;;;3.12;100.00;101484.66;5020485;28;20523;-55
2022/01/27 06:33:05;;;;;;;0.20;0.10;;;;;;;3.10;100.00;101478.50;5025671;28;20453;-55
2022/01/27 06:35:32;;;;;;;0.20;0.10;;;;;;;3.12;100.00;101477.69;5027134;28;20514;-55
2022/01/27 06:37:59;;;;;;;0.20;0.10;;;;;;;3.05;100.00;101473.16;5022724;28;20476;-55
2022/01/27 06:40:26;;;;;;;0.20;0.10;;;;;;;3.07;100.00;101475.81;5020198;28;20511;-55
2022/01/27 06:42:53;;;;;;;0.30;0.23;;;;;;;3.13;100.00;101471.56;5024764;28;20480;-55
2022/01/27 06:45:19;;;;;;;0.30;0.20;;;;;;;3.07;100.00;101463.56;5016192;28;20476;-55
2022/01/27 06:47:46;;;;;;;0.30;0.27;;;;;;;3.05;100.00;101459.16;5033535;28;20533;-55
2022/01/27 06:50:13;;;;;;;0.20;0.10;;;;;;;3.13;100.00;101465.44;5020000;28;21032;-55
2022/01/27 06:52:41;;;;;;;0.30;0.10;;;;;;;3.05;100.00;101474.91;5027318;28;20459;-55
2022/01/27 06:55:12;;;;;;;0.30;0.30;;;;;;;3.12;100.00;101467.16;5020036;28;20488;-55
2022/01/27 06:57:39;;;;;;;0.20;0.10;;;;;;;2.99;100.00;101462.50;5023867;28;20516;-55
2022/01/27 07:00:08;;;;;;;0.20;0.10;;;;;;;3.11;100.00;101467.13;5026922;28;20479;-55
2022/01/27 07:02:34;;;;;;;0.20;0.10;;;;;;;3.06;100.00;101460.91;5023472;28;20448;-55
2022/01/27 07:05:01;;;;;;;0.20;0.10;;;;;;;3.12;100.00;101467.16;5019800;28;20479;-55
2022/01/27 07:07:28;;;;;;;0.20;0.10;;;;;;;3.11;100.00;101462.78;5022647;28;20530;-55
2022/01/27 07:09:54;;;;;;;0.20;0.10;;;;;;;2.91;100.00;101467.63;5026278;28;20960;-55
2022/01/27 07:12:22;;;;;;;0.20;0.10;;;;;;;2.94;100.00;101458.91;5024265;28;20448;-55
2022/01/27 07:14:48;;;;;;;0.20;0.10;;;;;;;2.96;100.00;101460.72;5019704;28;20483;-55
2022/01/27 07:17:18;;;;;;;0.20;0.10;;;;;;;2.93;100.00;101452.78;5015304;28;20578;-55
2022/01/27 07:19:44;;;;;;;0.20;0.10;;;;;;;3.05;100.00;101460.03;5019269;28;20451;-56
2022/01/27 07:22:11;;;;;;;0.77;0.73;;;;;;;3.09;100.00;101455.72;5021166;28;20498;-55
2022/01/27 07:24:38;;;;;;;0.20;0.10;;;;;;;2.98;100.00;101453.75;5026717;28;20452;-55
2022/01/27 07:27:05;;;;;;;0.20;0.10;;;;;;;3.05;100.00;101453.91;5025035;28;20505;-55
2022/01/27 07:29:32;;;;;;;0.20;0.10;;;;;;;3.18;100.00;101451.56;5019548;28;20512;-55
2022/01/27 07:31:58;;;;;;;0.20;0.10;;;;;;;3.31;100.00;101447.44;5020460;28;20476;-55
2022/01/27 07:34:25;;;;;;;0.20;0.10;;;;;;;3.27;100.00;101440.31;5025720;28;20576;-55
2022/01/27 07:36:56;;;;;;;0.20;0.10;;;;;;;3.13;100.00;101429.53;5024996;28;20575;-55
2022/01/27 07:39:23;;;;;;;0.20;0.10;;;;;;;3.19;100.00;101426.16;5008739;28;20484;-55
2022/01/27 07:41:51;;;;;;;0.20;0.10;;;;;;;3.15;100.00;101416.44;5025944;28;20483;-55
2022/01/27 07:44:17;;;;;;;0.20;0.10;;;;;;;3.12;100.00;101412.00;5013069;28;20989;-55
2022/01/27 07:46:44;;;;;;;10.93;1.70;;;;;;;3.31;100.00;101420.28;5025723;28;20468;-56
2022/01/27 07:49:10;;;;;;;0.20;0.10;;;;;;;3.10;100.00;101410.22;5025399;28;20605;-55
2022/01/27 07:51:37;;;;;;;0.20;0.10;;;;;;;3.08;100.00;101402.31;5020974;28;20487;-55
2022/01/27 07:54:03;;;;;;;0.20;0.10;;;;;;;3.15;100.00;101400.66;5025315;28;20484;-55
2022/01/27 07:56:31;;;;;;;0.20;0.10;;;;;;;3.18;100.00;101401.63;5025400;28;21022;-55
2022/01/27 07:58:58;;;;;;;0.30;0.10;;;;;;;3.02;100.00;101389.06;5020103;28;20542;-55
2022/01/27 08:01:25;;;;;;;0.20;0.10;;;;;;;3.04;100.00;101389.09;5018904;28;20531;-55
2022/01/27 08:03:52;;;;;;;0.30;0.30;;;;;;;3.03;100.00;101380.34;5024459;28;20453;-55
2022/01/27 08:06:19;;;;;;;0.20;0.10;;;;;;;3.11;100.00;101383.09;5025898;28;20499;-55
2022/01/27 08:08:45;;;;;;;0.20;0.10;;;;;;;3.15;100.00;101366.53;5020548;28;20550;-55
2022/01/27 08:11:12;;;;;;;0.20;0.10;;;;;;;3.22;100.00;101366.69;5018622;28;20484;-55
2022/01/27 08:13:38;;;;;;;0.20;0.10;;;;;;;3.19;100.00;101369.25;5024350;28;20865;-55
2022/01/27 08:16:06;;;;;;;0.20;0.13;;;;;;;3.45;100.00;101366.22;5026492;28;20448;-55
2022/01/27 08:18:48;;;;;;;0.20;0.10;;;;;;;3.46;100.00;101373.25;5021676;28;20449;-55
2022/01/27 08:21:15;;;;;;;0.20;0.10;;;;;;;3.59;100.00;101369.97;5025708;28;20477;-55
2022/01/27 08:23:44;;;;;;;0.20;0.10;;;;;;;3.54;100.00;101372.50;5022796;28;20964;-55
2022/01/27 08:26:14;;;;;;;0.20;0.10;;;;;;;3.51;100.00;101376.84;5018684;28;20509;-55
2022/01/27 08:28:54;;;;;;;0.20;0.10;;;;;;;3.62;100.00;101374.41;5020328;28;20445;-55
2022/01/27 08:31:22;;;;;;;0.20;0.10;;;;;;;3.50;100.00;101372.44;5019250;28;20478;-55
2022/01/27 08:33:49;;;;;;;9.73;2.53;;;;;;;3.65;100.00;101377.06;5018722;28;20457;-55
2022/01/27 08:36:17;;;;;;;0.20;0.10;;;;;;;3.59;100.00;101372.59;5024556;28;20595;-55
2022/01/27 08:38:44;;;;;;;0.20;0.10;;;;;;;3.56;100.00;101373.44;5025479;28;20500;-55
2022/01/27 08:41:11;;;;;;;0.20;0.10;;;;;;;3.77;100.00;101378.16;5019471;28;20448;-55
2022/01/27 08:43:37;;;;;;;0.97;0.70;;;;;;;3.69;100.00;101379.75;5019226;28;20535;-55
2022/01/27 08:46:04;;;;;;;0.20;0.10;;;;;;;3.77;100.00;101382.53;5032080;28;20452;-55
2022/01/27 08:48:32;;;;;;;0.20;0.10;;;;;;;3.68;100.00;101385.88;5034393;28;20481;-55
2022/01/27 08:51:01;;;;;;;0.20;0.10;;;;;;;3.84;100.00;101389.69;5023598;28;20451;-55
2022/01/27 08:53:49;;;;;;;0.30;0.30;;;;;;;3.62;100.00;101390.16;5028968;28;20819;-55
2022/01/27 08:56:17;;;;;;;0.20;0.10;;;;;;;3.80;100.00;101395.72;5027929;28;20525;-55
2022/01/27 08:58:44;;;;;;;0.20;0.10;;;;;;;3.68;100.00;101398.16;5022567;28;20455;-55
2022/01/27 09:01:11;;;;;;;0.20;0.10;;;;;;;3.78;100.00;101386.94;5023067;28;20460;-55
2022/01/27 09:03:38;;;;;;;0.20;0.10;;;;;;;3.76;100.00;101381.66;5028980;28;20480;-55
2022/01/27 09:06:06;;;;;;;0.20;0.10;;;;;;;3.90;100.00;101379.25;5028495;28;20454;-55
2022/01/27 09:08:38;;;;;;;0.30;0.10;;;;;;;3.80;100.00;101374.69;5010245;28;20888;-55
2022/01/27 09:11:05;;;;;;;0.27;0.20;;;;;;;3.85;100.00;101373.94;5022206;28;20445;-55
2022/01/27 09:13:31;;;;;;;0.20;0.10;;;;;;;3.94;100.00;101369.66;5027989;28;20522;-55
2022/01/27 09:16:00;;;;;;;0.20;0.10;;;;;;;3.88;100.00;101359.94;5029407;28;20455;-55
2022/01/27 09:18:47;;;;;;;0.20;0.20;;;;;;;3.89;100.00;101372.22;5010321;28;20440;-55
2022/01/27 09:21:20;;;;;;;2.50;2.30;;;;;;;3.97;100.00;101374.97;5028255;28;20957;-55
2022/01/27 09:23:48;;;;;;;0.20;0.10;;;;;;;4.07;100.00;101380.41;5027007;28;20526;-55
2022/01/27 09:29:00;;;;;;;0.20;0.10;;;;;;;3.89;100.00;101377.47;5021485;28;21281;-55
2022/01/27 09:31:26;;;;;;;0.20;0.10;;;;;;;3.95;100.00;101369.69;5027067;28;20488;-55
2022/01/27 09:33:53;;;;;;;0.60;0.60;;;;;;;3.99;100.00;101360.13;5028108;28;20455;-55
2022/01/27 09:36:20;;;;;;;0.20;0.10;;;;;;;4.08;100.00;101352.34;5023391;28;20482;-55
2022/01/27 09:38:46;;;;;;;0.20;0.10;;;;;;;4.21;100.00;101343.75;5021505;28;20452;-55
2022/01/27 09:41:19;;;;;;;0.20;0.10;;;;;;;4.19;100.00;101355.13;5026215;28;20448;-55
2022/01/27 09:43:53;;;;;;;0.20;0.10;;;;;;;4.01;100.00;101353.13;5030701;28;20898;-55
2022/01/27 09:46:21;;;;;;;0.20;0.10;;;;;;;4.21;100.00;101350.78;5034713;28;20551;-55
2022/01/27 09:48:50;;;;;;;0.20;0.10;;;;;;;4.26;100.00;101351.75;5030437;28;20535;-55
2022/01/27 09:51:25;;;;;;;0.20;0.10;;;;;;;4.23;100.00;101343.78;5022724;28;20456;-55
2022/01/27 09:53:57;;;;;;;1.13;1.13;;;;;;;4.25;100.00;101336.78;5027831;28;20523;-55
2022/01/27 09:56:25;;;;;;;0.20;0.10;;;;;;;4.25;100.00;101331.53;5027806;28;20467;-54
2022/01/27 09:59:04;;;;;;;0.20;0.10;;;;;;;4.30;100.00;101333.38;5022809;28;20936;-53
2022/01/27 10:01:31;;;;;;;2.33;2.20;;;;;;;4.19;100.00;101329.72;5020946;28;20453;-55
2022/01/27 10:04:06;;;;;;;0.20;0.10;;;;;;;4.18;100.00;101333.19;5025494;28;20448;-55
2022/01/27 10:06:34;;;;;;;0.20;0.10;;;;;;;4.34;100.00;101334.28;5027774;28;20572;-57
2022/01/27 10:09:12;;;;;;;0.20;0.10;;;;;;;4.11;100.00;101332.25;5025133;28;20510;-55
2022/01/27 10:11:39;;;;;;;0.20;0.10;;;;;;;4.19;100.00;101334.09;5020878;28;21019;-56
2022/01/27 10:14:21;;;;;;;0.20;0.10;;;;;;;4.33;100.00;101329.91;5022808;28;20983;-55
2022/01/27 10:16:53;;;;;;;0.20;0.20;;;;;;;4.27;100.00;101321.94;5026566;28;20598;-55
2022/01/27 10:19:22;;;;;;;0.20;0.10;;;;;;;4.22;100.00;101326.22;5020942;28;20456;-55
2022/01/27 10:21:50;;;;;;;0.20;0.10;;;;;;;4.27;100.00;101327.19;5025309;28;20860;-55
2022/01/27 10:24:27;;;;;;;0.20;0.10;;;;;;;4.39;100.00;101327.38;5009930;28;21024;-55
2022/01/27 10:28:30;;;;;;;0.20;0.10;;;;;;;4.24;100.00;101322.75;5024658;28;20503;-55
2022/01/27 10:32:51;;;;;;;0.20;0.10;;;;;;;4.21;100.00;101306.94;5027433;28;20559;-55
2022/01/27 10:35:22;;;;;;;0.63;0.63;;;;;;;4.44;100.00;101310.75;5026875;28;20527;-55
2022/01/27 10:37:53;;;;;;;0.20;0.13;;;;;;;4.18;100.00;101299.00;5027057;28;20587;-55
2022/01/27 10:40:25;;;;;;;0.30;0.20;;;;;;;4.42;100.00;101303.72;5027060;28;20852;-55
2022/01/27 10:43:08;;;;;;;0.20;0.10;;;;;;;4.29;100.00;101301.78;5022387;28;20443;-55
2022/01/27 10:45:38;;;;;;;0.67;0.67;;;;;;;4.41;100.00;101300.19;5033314;28;20468;-56
2022/01/27 10:48:18;;;;;;;0.20;0.10;;;;;;;4.45;100.00;101306.38;5033407;28;20463;-56
2022/01/27 10:51:02;;;;;;;0.20;0.10;;;;;;;4.54;100.00;101308.25;5020366;28;20487;-55
2022/01/27 10:53:53;;;;;;;0.20;0.20;;;;;;;4.62;100.00;101310.09;5022709;28;20482;-55
2022/01/27 10:56:23;;;;;;;0.20;0.10;;;;;;;4.72;100.00;101308.47;5025698;28;20467;-56
2022/01/27 10:58:50;;;;;;;0.20;0.20;;;;;;;4.81;100.00;101307.69;5019896;28;20533;-56
2022/01/27 11:01:29;;;;;;;0.23;0.17;;;;;;;4.79;100.00;101306.75;5020585;28;20453;-55
2022/01/27 11:03:59;;;;;;;0.20;0.10;;;;;;;4.92;100.00;101306.91;5009726;28;20447;-55
2022/01/27 11:06:28;;;;;;;0.20;0.10;;;;;;;4.75;100.00;101312.00;5019807;28;20465;-53
2022/01/27 11:08:57;;;;;;;0.20;0.10;;;;;;;4.98;100.00;101299.09;5023415;28;20702;-53
2022/01/27 11:11:26;;;;;;;0.30;0.20;;;;;;;5.00;100.00;101309.66;5026609;28;21008;-53
2022/01/27 11:13:54;;;;;;;0.20;0.20;;;;;;;5.19;100.00;101285.22;5023046;28;20851;-53
2022/01/27 11:16:24;;;;;;;0.20;0.20;;;;;;;5.22;100.00;101273.88;5024261;28;20563;-52
2022/01/27 11:18:56;;;;;;;0.20;0.10;;;;;;;5.19;100.00;101268.53;5022373;28;20911;-53
2022/01/27 11:21:35;;;;;;;0.43;0.40;;;;;;;5.28;99.90;101271.25;5026433;28;20491;-55
2022/01/27 11:24:06;;;;;;;0.20;0.10;;;;;;;5.25;100.00;101266.84;5026290;28;20972;-53
2022/01/27 11:26:40;;;;;;;2.53;2.43;;;;;;;5.36;99.38;101253.78;5020539;28;20495;-55
2022/01/27 11:29:09;;;;;;;0.47;0.47;;;;;;;5.58;98.48;101260.97;5002285;28;20523;-55
2022/01/27 11:32:07;;;;;;;0.20;0.10;;;;;;;5.37;99.59;101267.84;5006365;28;20543;-55
2022/01/27 11:34:49;;;;;;;0.20;0.10;;;;;;;5.31;99.88;101272.16;5020163;28;20870;-55
2022/01/27 11:37:28;;;;;;;0.20;0.10;;;;;;;5.17;100.00;101268.53;5018959;28;21001;-56
2022/01/27 11:39:56;;;;;;;0.20;0.10;;;;;;;5.29;100.00;101267.75;5022040;28;20444;-56
2022/01/27 11:42:55;;;;;;;0.20;0.10;;;;;;;5.24;100.00;101272.13;5007610;28;20462;-55
2022/01/27 11:45:28;;;;;;;0.20;0.10;;;;;;;5.38;99.89;101270.47;5032239;28;20444;-56
2022/01/27 11:48:15;;;;;;;0.20;0.10;;;;;;;5.27;100.00;101272.13;5032855;28;20514;-56
2022/01/27 11:50:51;;;;;;;0.20;0.10;;;;;;;5.55;99.15;101266.22;5018939;28;20538;-56
2022/01/27 11:53:44;;;;;;;0.30;0.20;;;;;;;5.37;99.96;101258.19;5008768;28;20542;-56
2022/01/27 11:56:23;;;;;;;0.20;0.10;;;;;;;5.27;99.87;101256.31;5023891;28;20484;-56
2022/01/27 11:58:52;;;;;;;0.20;0.10;;;;;;;5.36;100.00;101245.88;5019099;28;20522;-56
2022/01/27 12:01:26;;;;;;;0.20;0.10;;;;;;;5.23;100.00;101249.28;5019340;28;20491;-55
2022/01/27 12:04:02;;;;;;;0.20;0.10;;;;;;;5.28;100.00;101250.19;5008679;28;20531;-56
2022/01/27 12:06:32;;;;;;;0.20;0.10;;;;;;;5.20;100.00;101251.84;5019061;28;20507;-55
2022/01/27 12:09:32;;;;;;;0.50;0.47;;;;;;;5.24;100.00;101257.19;5022516;28;20444;-56
2022/01/27 12:12:14;;;;;;;0.20;0.10;;;;;;;5.25;100.00;101245.78;4976659;28;20888;-55
2022/01/27 12:14:42;;;;;;;1.90;1.80;;;;;;;5.06;100.00;101239.44;5018785;28;20494;-55
2022/01/27 12:17:08;;;;;;;0.20;0.10;;;;;;;5.07;100.00;101242.94;5032198;28;20503;-55
2022/01/27 12:19:53;;;;;;;0.20;0.10;;;;;;;4.83;100.00;101238.34;5018754;28;20448;-55
2022/01/27 12:22:52;;;;;;;0.20;0.10;;;;;;;4.76;100.00;101241.78;5023435;28;20842;-56